Etusivu
METAR-TAF:

METAR-TAF

Lentoasemat :

Falls International Airport

International Falls, Minnesota, Yhdysvallat

Leveyspiiri: 48-33-43N, Pituuspiiri: 093-23-52W, korkeus merenpinnasta: 361 m

Tämänhetkinen sää

Tämä raportti tehtiin 46 minuuttia sitten, kello 08.55 UTC
Tuuli 5 kn lännestä
Lämpötila -24°C
Kosteus 76%
Ilmanpaine 1032 hPa
Näkyvyys: 16.1 km
selkeää

METAR: KINL 190855Z AUTO 27005KT 10SM CLR M24/M27 A3047 RMK AO2 SLP355 T12441272 51012

Aika: 03:41 (09:41 UTC)

Sääennuste

Tämä raportti tehtiin 4 tuntia ja 11 minuuttia sitten, kello 05.30 UTC
Ennuste voimassa 19. päivästä klo 06 UTC - 20. päivään klo 06 UTC
Tuuli 6 kn lännestä
Näkyvyys: 10 km
selkeää

TAF: KINL 190530Z 1906/2006 28006KT P6SM SKC

Säähavainnot ja -ennusteet yli 4000 lentoasemalta (METAR- ja TAF-raportit).

Käytössä olevat sääasemat on merkitty karttaan keltaisilla ja punaisilla pisteillä.

Aseta hiiri pisteen päälle nähdäksesi sääaseman nimen.

Klikkaa sitten nähdäksesi säähavainnot ja -ennusteet.

Kartan vaihtaminen: klikkaa mustalla rastilla varustettuja vihreitä pisteitä, niin voit zoomata sisään; viivalla varustettua vihreää pistettä, niin voit zoomata ulos tai vihreitä nuolia, niin pääset viereisille kartoille.


METAR-TAF: